Terminal Aerodrome Forecast
Issued by NWS Dodge City, KS

Home | Current Version | Previous Version | Graphics & Text | Print | Product List | Glossary Off
Versions: 1 2 3 4 5 6 7 8 9 10 11 12 13

000
FTUS43 KDDC 210525
TAFDDC
TAF
KDDC 210525Z 2106/2206 18011KT P6SM SKC WS020/20040KT
     FM211400 21015KT P6SM SKC=

USA.gov is the U.S. government's official web portal to all federal, state and local government web resources and services.